createdAt,value
2023-04-05T00:02:06.816Z,95993.38
2023-04-05T00:04:36.508Z,95987.47
2023-04-05T00:07:08.205Z,95990.09
2023-04-05T00:09:37.678Z,95989.44
2023-04-05T00:12:09.468Z,95983.38
2023-04-05T00:14:38.859Z,95982.88
2023-04-05T00:17:10.897Z,95980.25
2023-04-05T00:19:43.109Z,95980.44
2023-04-05T00:22:12.879Z,95983.06
2023-04-05T00:24:43.381Z,95977.97
2023-04-05T00:27:14.352Z,95980.59
2023-04-05T00:29:43.802Z,95974.22
2023-04-05T00:32:13.465Z,95965.69
2023-04-05T00:34:42.925Z,95967.66
2023-04-05T00:37:13.142Z,95970.63
2023-04-05T00:39:42.744Z,95967.50
2023-04-05T00:42:13.517Z,95967.69
2023-04-05T00:44:42.909Z,95961.59
2023-04-05T00:47:12.543Z,95966.38
2023-04-05T00:49:43.090Z,95964.25
2023-04-05T00:52:13.307Z,95958.53
2023-04-05T00:54:43.665Z,95955.56
2023-04-05T00:57:15.009Z,95961.97
2023-04-05T00:59:44.787Z,95961.31
2023-04-05T01:02:20.852Z,95955.56
2023-04-05T01:05:01.536Z,95954.09
2023-04-05T01:07:42.243Z,95948.19
2023-04-05T01:10:15.321Z,95942.28
2023-04-05T01:12:47.520Z,95945.06
2023-04-05T01:15:20.588Z,95945.41
2023-04-05T01:17:54.349Z,95939.34
2023-04-05T01:20:28.456Z,95941.97
2023-04-05T01:23:37.584Z,95933.47
2023-04-05T01:26:50.189Z,95936.09
2023-04-05T01:29:59.100Z,95930.84
2023-04-05T01:32:56.632Z,95931.47
2023-04-05T01:35:38.831Z,95927.69
2023-04-05T01:38:13.206Z,95926.69
2023-04-05T01:40:43.648Z,95927.34
2023-04-05T01:43:18.135Z,95921.28
2023-04-05T01:45:49.245Z,95921.09
2023-04-05T01:48:18.893Z,95916.69
2023-04-05T01:50:48.348Z,95917.50
2023-04-05T01:53:18.000Z,95913.88
2023-04-05T01:55:47.453Z,95910.09
2023-04-05T01:58:16.885Z,95911.75
2023-04-05T02:00:47.826Z,95905.50
2023-04-05T02:03:17.383Z,95908.13
2023-04-05T02:05:47.064Z,95911.56
2023-04-05T02:08:16.554Z,95896.81
2023-04-05T02:10:46.431Z,95900.09
2023-04-05T02:13:16.315Z,95896.47
2023-04-05T02:15:51.215Z,95899.91
2023-04-05T02:18:22.209Z,95897.47
2023-04-05T02:20:52.703Z,95889.41
2023-04-05T02:23:22.174Z,95891.88
2023-04-05T02:25:51.604Z,95888.44
2023-04-05T02:28:21.028Z,95885.16
2023-04-05T02:30:51.925Z,95879.72
2023-04-05T02:33:22.779Z,95883.34
2023-04-05T02:35:54.804Z,95879.91
2023-04-05T02:38:24.365Z,95872.84
2023-04-05T02:40:53.740Z,95881.38
2023-04-05T02:43:23.199Z,95879.56
2023-04-05T02:45:54.301Z,95872.50
2023-04-05T02:48:23.859Z,95867.06
2023-04-05T02:50:55.001Z,95868.06
2023-04-05T02:53:27.192Z,95869.72
2023-04-05T02:56:02.509Z,95862.66
2023-04-05T02:58:33.699Z,95865.75
2023-04-05T03:01:07.399Z,95878.53
2023-04-05T03:03:38.040Z,95883.28
2023-04-05T03:06:10.934Z,95866.03
2023-04-05T03:08:51.815Z,95865.16
2023-04-05T03:11:25.002Z,95867.81
2023-04-05T03:14:00.596Z,95864.00
2023-04-05T03:16:51.710Z,95866.97
2023-04-05T03:19:27.511Z,95864.19
2023-04-05T03:22:03.293Z,95865.16
2023-04-05T03:24:36.470Z,95865.34
2023-04-05T03:27:08.701Z,95861.25
2023-04-05T03:29:45.468Z,95856.50
2023-04-05T03:32:20.007Z,95866.19
2023-04-05T03:34:55.298Z,95860.09
2023-04-05T03:37:25.507Z,95855.19
2023-04-05T03:40:07.025Z,95848.28
2023-04-05T03:42:37.730Z,95855.53
2023-04-05T03:45:09.032Z,95854.88
2023-04-05T03:47:39.846Z,95850.97
2023-04-05T03:50:11.017Z,95848.69
2023-04-05T03:52:40.628Z,95857.56
2023-04-05T03:55:10.801Z,95853.47
2023-04-05T03:57:43.214Z,95854.78
2023-04-05T04:00:24.738Z,95854.63
2023-04-05T04:03:14.020Z,95849.53
2023-04-05T04:05:47.327Z,95858.25
2023-04-05T04:08:16.782Z,95849.88
2023-04-05T04:10:46.289Z,95854.84
2023-04-05T04:13:23.731Z,95849.94
2023-04-05T04:16:02.383Z,95847.63
2023-04-05T04:18:54.320Z,95849.94
2023-04-05T04:21:39.470Z,95854.03
2023-04-05T04:24:36.388Z,95858.97
2023-04-05T04:27:39.088Z,95853.75
2023-04-05T04:30:22.621Z,95854.91
2023-04-05T04:33:12.395Z,95859.16
2023-04-05T04:35:55.190Z,95858.84
2023-04-05T04:38:44.295Z,95852.13
2023-04-05T04:41:48.955Z,95856.72
2023-04-05T04:44:36.778Z,95856.25
2023-04-05T04:47:23.013Z,95849.38
2023-04-05T04:50:01.528Z,95843.75
2023-04-05T04:52:35.476Z,95857.69
2023-04-05T04:55:05.685Z,95858.50
2023-04-05T04:57:35.206Z,95855.06
2023-04-05T05:00:12.766Z,95851.00
2023-04-05T05:02:44.028Z,95865.25
2023-04-05T05:05:16.207Z,95859.38
2023-04-05T05:07:47.021Z,95861.50
2023-04-05T05:10:17.063Z,95856.56
2023-04-05T05:12:48.601Z,95849.69
2023-04-05T05:15:18.621Z,95851.31
2023-04-05T05:17:52.888Z,95854.75
2023-04-05T05:20:23.160Z,95856.56
2023-04-05T05:22:54.012Z,95855.59
2023-04-05T05:25:23.464Z,95858.69
2023-04-05T05:27:52.876Z,95854.13
2023-04-05T05:30:25.936Z,95856.41
2023-04-05T05:32:55.420Z,95850.19
2023-04-05T05:35:24.877Z,95860.31
2023-04-05T05:37:56.020Z,95860.00
2023-04-05T05:40:26.834Z,95870.81
2023-04-05T05:42:56.285Z,95873.59
2023-04-05T05:45:25.750Z,95870.97
2023-04-05T05:47:56.114Z,95866.84
2023-04-05T05:50:25.610Z,95866.84
2023-04-05T05:52:56.756Z,95865.84
2023-04-05T05:55:26.662Z,95869.25
2023-04-05T05:57:56.105Z,95869.06
2023-04-05T06:00:25.759Z,95866.25
2023-04-05T06:02:55.490Z,95872.94
2023-04-05T06:05:25.552Z,95873.56
2023-04-05T06:07:56.328Z,95869.91
2023-04-05T06:10:25.773Z,95872.81
2023-04-05T06:12:55.152Z,95875.22
2023-04-05T06:15:24.562Z,95877.63
2023-04-05T06:17:53.976Z,95877.88
2023-04-05T06:20:23.388Z,95875.69
2023-04-05T06:22:52.888Z,95880.53
2023-04-05T06:25:23.697Z,95885.56
2023-04-05T06:27:53.116Z,95884.16
2023-04-05T06:30:22.954Z,95881.28
2023-04-05T06:32:54.553Z,95891.59
2023-04-05T06:35:25.130Z,95880.59
2023-04-05T06:37:54.780Z,95873.28
2023-04-05T06:40:25.572Z,95872.00
2023-04-05T06:42:55.726Z,95880.31
2023-04-05T06:45:31.401Z,95876.41
2023-04-05T06:48:00.946Z,95874.94
2023-04-05T06:50:30.426Z,95871.69
2023-04-05T06:52:59.966Z,95857.41
2023-04-05T06:55:31.171Z,95864.84
2023-04-05T06:58:00.621Z,95872.31
2023-04-05T07:00:30.123Z,95860.44
2023-04-05T07:02:59.590Z,95866.69
2023-04-05T07:05:29.047Z,95859.09
2023-04-05T07:07:58.400Z,95857.44
2023-04-05T07:10:27.786Z,95860.38
2023-04-05T07:12:58.591Z,95862.16
2023-04-05T07:15:28.232Z,95857.34
2023-04-05T07:17:57.674Z,95863.31
2023-04-05T07:20:27.166Z,95866.47
2023-04-05T07:22:57.864Z,95862.47
2023-04-05T07:25:27.690Z,95856.03
2023-04-05T07:27:58.511Z,95861.63
2023-04-05T07:30:28.946Z,95858.81
2023-04-05T07:32:58.395Z,95862.56
2023-04-05T07:35:28.565Z,95865.47
2023-04-05T07:37:57.983Z,95854.16
2023-04-05T07:40:27.752Z,95868.84
2023-04-05T07:42:58.541Z,95857.88
2023-04-05T07:45:27.984Z,95868.34
2023-04-05T07:47:57.439Z,95870.41
2023-04-05T07:50:28.160Z,95862.94
2023-04-05T07:52:57.514Z,95865.63
2023-04-05T07:55:27.340Z,95870.34
2023-04-05T07:57:58.390Z,95875.03
2023-04-05T08:00:27.923Z,95870.78
2023-04-05T08:03:01.314Z,95873.44
2023-04-05T08:05:31.622Z,95879.75
2023-04-05T08:08:01.363Z,95872.44
2023-04-05T08:10:30.875Z,95881.84
2023-04-05T08:13:01.766Z,95874.88
2023-04-05T08:15:31.348Z,95875.09
2023-04-05T08:18:00.887Z,95876.06
2023-04-05T08:20:30.354Z,95873.22
2023-04-05T08:22:59.874Z,95866.81
2023-04-05T08:25:29.273Z,95862.91
2023-04-05T08:27:58.634Z,95868.59
2023-04-05T08:30:29.578Z,95867.34
2023-04-05T08:32:59.082Z,95862.59
2023-04-05T08:35:28.573Z,95860.47
2023-04-05T08:37:58.137Z,95857.38
2023-04-05T08:40:42.654Z,95863.00
2023-04-05T08:43:20.472Z,95855.13
2023-04-05T08:45:54.287Z,95857.25
2023-04-05T08:48:23.808Z,95862.91
2023-04-05T08:50:55.617Z,95861.16
2023-04-05T08:53:25.121Z,95854.91
2023-04-05T08:55:58.197Z,95849.63
2023-04-05T08:58:29.807Z,95862.78
2023-04-05T09:01:01.690Z,95855.78
2023-04-05T09:03:37.998Z,95857.94
2023-04-05T09:06:11.847Z,95860.66
2023-04-05T09:08:42.163Z,95855.66
2023-04-05T09:11:13.490Z,95856.91
2023-04-05T09:13:42.867Z,95858.19
2023-04-05T09:16:16.015Z,95852.31
2023-04-05T09:18:45.760Z,95853.41
2023-04-05T09:21:16.247Z,95857.06
2023-04-05T09:23:56.346Z,95849.56
2023-04-05T09:26:27.423Z,95857.13
2023-04-05T09:29:00.841Z,95852.38
2023-04-05T09:31:37.207Z,95853.34
2023-04-05T09:34:21.504Z,95850.09
2023-04-05T09:36:51.373Z,95851.25
2023-04-05T09:39:31.550Z,95853.66
2023-04-05T09:42:11.957Z,95851.13
2023-04-05T09:45:01.440Z,95850.47
2023-04-05T09:47:35.328Z,95846.00
2023-04-05T09:50:21.918Z,95849.75
2023-04-05T09:52:52.512Z,95848.25
2023-04-05T09:55:29.871Z,95853.00
2023-04-05T09:57:59.422Z,95854.75
2023-04-05T10:00:31.154Z,95848.38
2023-04-05T10:03:02.120Z,95842.56
2023-04-05T10:05:32.548Z,95848.81
2023-04-05T10:08:02.689Z,95845.84
2023-04-05T10:10:37.061Z,95844.06
2023-04-05T10:13:07.324Z,95842.91
2023-04-05T10:15:37.314Z,95844.88
2023-04-05T10:18:19.248Z,95839.56
2023-04-05T10:20:53.373Z,95841.22
2023-04-05T10:23:29.339Z,95834.22
2023-04-05T10:26:14.202Z,95839.44
2023-04-05T10:28:49.056Z,95835.25
2023-04-05T10:31:37.274Z,95836.88
2023-04-05T10:34:28.067Z,95825.25
2023-04-05T10:37:02.610Z,95821.53
2023-04-05T10:39:42.052Z,95824.56
2023-04-05T10:42:22.166Z,95819.72
2023-04-05T10:44:55.611Z,95822.13
2023-04-05T10:47:28.062Z,95818.38
2023-04-05T10:50:05.218Z,95823.75
2023-04-05T10:52:35.563Z,95819.56
2023-04-05T10:55:05.888Z,95815.50
2023-04-05T10:57:36.091Z,95815.78
2023-04-05T11:00:08.870Z,95817.63
2023-04-05T11:02:38.947Z,95820.88
2023-04-05T11:05:32.991Z,95820.34
2023-04-05T11:08:07.867Z,95814.19
2023-04-05T11:10:40.697Z,95814.25
2023-04-05T11:13:11.836Z,95813.16
2023-04-05T11:15:41.640Z,95812.44
2023-04-05T11:18:13.530Z,95804.25
2023-04-05T11:20:55.938Z,95807.53
2023-04-05T11:23:27.031Z,95803.03
2023-04-05T11:26:05.263Z,95811.91
2023-04-05T11:28:39.597Z,95803.72
2023-04-05T11:31:19.155Z,95805.97
2023-04-05T11:34:11.101Z,95790.41
2023-04-05T11:36:47.880Z,95795.28
2023-04-05T11:39:30.870Z,95802.50
2023-04-05T11:42:04.394Z,95794.38
2023-04-05T11:44:54.316Z,95797.13
2023-04-05T11:47:23.802Z,95790.22
2023-04-05T11:49:53.890Z,95785.91
2023-04-05T11:52:24.695Z,95777.66
2023-04-05T11:54:54.065Z,95776.63
2023-04-05T11:57:25.433Z,95776.75
2023-04-05T11:59:55.190Z,95779.97
2023-04-05T12:02:25.364Z,95769.06
2023-04-05T12:04:58.875Z,95767.28
2023-04-05T12:07:36.820Z,95766.28
2023-04-05T12:10:11.692Z,95758.63
2023-04-05T12:12:45.325Z,95770.28
2023-04-05T12:15:18.754Z,95764.72
2023-04-05T12:17:51.004Z,95767.78
2023-04-05T12:20:24.844Z,95762.06
2023-04-05T12:22:57.986Z,95754.31
2023-04-05T12:25:27.611Z,95755.16
2023-04-05T12:27:56.928Z,95756.00
2023-04-05T12:30:36.138Z,95762.16
2023-04-05T12:33:10.371Z,95759.66
2023-04-05T12:35:40.982Z,95755.19
2023-04-05T12:38:17.436Z,95754.53
2023-04-05T12:40:46.982Z,95753.19
2023-04-05T12:43:19.929Z,95758.69
2023-04-05T12:45:50.832Z,95755.38
2023-04-05T12:48:25.667Z,95743.91
2023-04-05T12:50:55.192Z,95747.19
2023-04-05T12:53:28.737Z,95743.16
2023-04-05T12:55:59.550Z,95746.63
2023-04-05T12:58:37.085Z,95747.44
2023-04-05T13:01:07.121Z,95746.09
2023-04-05T13:03:36.725Z,95745.81
2023-04-05T13:06:06.301Z,95734.16
2023-04-05T13:08:37.055Z,95735.31
2023-04-05T13:11:06.742Z,95728.56
2023-04-05T13:13:36.080Z,95726.91
2023-04-05T13:16:05.970Z,95730.63
2023-04-05T13:18:35.572Z,95726.13
2023-04-05T13:21:07.706Z,95724.94
2023-04-05T13:23:40.596Z,95720.44
2023-04-05T13:26:10.294Z,95726.63
2023-04-05T13:28:39.677Z,95718.72
2023-04-05T13:31:09.193Z,95718.88
2023-04-05T13:33:38.645Z,95710.72
2023-04-05T13:36:11.023Z,95704.25
2023-04-05T13:38:42.420Z,95707.22
2023-04-05T13:41:11.884Z,95698.16
2023-04-05T13:43:41.331Z,95705.16
2023-04-05T13:46:10.941Z,95695.06
2023-04-05T13:48:40.352Z,95699.69
2023-04-05T13:51:09.801Z,95691.53
2023-04-05T13:53:39.265Z,95696.38
2023-04-05T13:56:10.289Z,95694.78
2023-04-05T13:58:39.882Z,95696.69
2023-04-05T14:01:09.267Z,95694.69
2023-04-05T14:03:38.781Z,95692.88
2023-04-05T14:06:08.922Z,95689.47
2023-04-05T14:08:38.348Z,95693.94
2023-04-05T14:11:09.652Z,95696.75
2023-04-05T14:13:39.137Z,95691.59
2023-04-05T14:16:08.821Z,95700.50
2023-04-05T14:18:38.468Z,95682.53
2023-04-05T14:21:08.242Z,95689.09
2023-04-05T14:23:38.032Z,95685.19
2023-04-05T14:26:09.292Z,95685.59
2023-04-05T14:28:38.939Z,95678.66
2023-04-05T14:31:08.780Z,95684.00
2023-04-05T14:33:38.341Z,95675.16
2023-04-05T14:36:08.328Z,95675.59
2023-04-05T14:38:37.967Z,95674.63
2023-04-05T14:41:10.180Z,95672.88
2023-04-05T14:43:40.607Z,95677.09
2023-04-05T14:46:10.296Z,95673.00
2023-04-05T14:48:39.986Z,95672.34
2023-04-05T14:51:09.650Z,95666.06
2023-04-05T14:53:39.315Z,95665.66
2023-04-05T14:56:10.958Z,95659.75
2023-04-05T14:58:40.734Z,95663.06
2023-04-05T15:01:11.026Z,95666.00
2023-04-05T15:03:40.916Z,95671.41
2023-04-05T15:06:10.795Z,95668.47
2023-04-05T15:08:40.613Z,95671.44
2023-04-05T15:11:11.659Z,95669.50
2023-04-05T15:13:41.331Z,95664.47
2023-04-05T15:16:11.503Z,95667.28
2023-04-05T15:18:41.615Z,95667.06
2023-04-05T15:21:11.708Z,95668.88
2023-04-05T15:23:41.390Z,95669.53
2023-04-05T15:26:12.578Z,95668.53
2023-04-05T15:28:42.210Z,95671.50
2023-04-05T15:31:12.017Z,95672.59
2023-04-05T15:33:41.684Z,95660.72
2023-04-05T15:36:11.674Z,95670.25
2023-04-05T15:38:41.410Z,95664.44
2023-04-05T15:41:12.364Z,95661.25
2023-04-05T15:43:41.957Z,95666.31
2023-04-05T15:46:11.912Z,95669.28
2023-04-05T15:48:43.671Z,95677.13
2023-04-05T15:51:13.265Z,95670.75
2023-04-05T15:53:42.900Z,95673.31
2023-04-05T15:56:13.900Z,95676.72
2023-04-05T15:58:43.595Z,95672.00
2023-04-05T16:01:13.400Z,95676.78
2023-04-05T16:03:43.682Z,95671.25
2023-04-05T16:06:13.342Z,95676.34
2023-04-05T16:08:43.065Z,95677.75
2023-04-05T16:11:14.144Z,95676.25
2023-04-05T16:13:43.760Z,95675.53
2023-04-05T16:16:20.484Z,95673.19
2023-04-05T16:18:54.198Z,95677.03
2023-04-05T16:21:23.999Z,95670.88
2023-04-05T16:23:53.668Z,95673.97
2023-04-05T16:26:24.624Z,95678.09
2023-04-05T16:28:54.752Z,95678.16
2023-04-05T16:31:24.654Z,95682.53
2023-04-05T16:33:54.602Z,95677.97
2023-04-05T16:36:24.290Z,95685.50
2023-04-05T16:38:53.917Z,95686.50
2023-04-05T16:41:24.916Z,95675.69
2023-04-05T16:43:54.506Z,95681.97
2023-04-05T16:46:24.157Z,95686.69
2023-04-05T16:48:53.847Z,95685.78
2023-04-05T16:51:23.546Z,95689.88
2023-04-05T16:53:53.234Z,95687.19
2023-04-05T16:56:24.587Z,95694.28
2023-04-05T16:58:55.064Z,95696.22
2023-04-05T17:01:24.958Z,95695.13
2023-04-05T17:03:54.621Z,95692.22
2023-04-05T17:06:24.249Z,95692.53
2023-04-05T17:08:53.917Z,95696.31
2023-04-05T17:11:24.924Z,95694.16
2023-04-05T17:13:54.592Z,95688.94
2023-04-05T17:16:25.174Z,95699.16
2023-04-05T17:18:54.899Z,95694.19
2023-04-05T17:21:25.829Z,95702.41
2023-04-05T17:23:55.915Z,95698.28
2023-04-05T17:26:27.126Z,95698.91
2023-04-05T17:28:56.799Z,95696.09
2023-04-05T17:31:26.904Z,95706.59
2023-04-05T17:33:56.553Z,95704.50
2023-04-05T17:36:27.350Z,95695.84
2023-04-05T17:38:57.044Z,95699.88
2023-04-05T17:41:28.094Z,95708.16
2023-04-05T17:43:58.518Z,95712.16
2023-04-05T17:46:40.234Z,95715.06
2023-04-05T17:49:12.604Z,95714.28
2023-04-05T17:51:42.388Z,95718.00
2023-04-05T17:54:12.526Z,95714.88
2023-04-05T17:56:43.528Z,95715.25
2023-04-05T17:59:13.113Z,95720.94
2023-04-05T18:01:42.958Z,95724.66
2023-04-05T18:04:12.826Z,95727.66
2023-04-05T18:06:42.586Z,95718.81
2023-04-05T18:09:12.210Z,95719.63
2023-04-05T18:11:43.150Z,95725.84
2023-04-05T18:14:12.810Z,95737.63
2023-04-05T18:16:42.539Z,95737.31
2023-04-05T18:19:12.147Z,95732.50
2023-04-05T18:21:41.776Z,95736.63
2023-04-05T18:24:12.909Z,95741.59
2023-04-05T18:26:45.099Z,95747.13
2023-04-05T18:29:14.812Z,95749.41
2023-04-05T18:31:44.470Z,95745.66
2023-04-05T18:34:14.116Z,95759.28
2023-04-05T18:36:43.870Z,95758.19
2023-04-05T18:39:13.899Z,95763.38
2023-04-05T18:41:44.905Z,95772.22
2023-04-05T18:44:14.687Z,95770.09
2023-04-05T18:46:45.107Z,95777.69
2023-04-05T18:49:15.870Z,95777.56
2023-04-05T18:51:46.106Z,95772.69
2023-04-05T18:54:18.316Z,95777.44
2023-04-05T18:56:49.349Z,95780.53
2023-04-05T18:59:19.840Z,95783.00
2023-04-05T19:01:49.676Z,95780.00
2023-04-05T19:04:19.339Z,95780.41
2023-04-05T19:06:49.035Z,95784.31
2023-04-05T19:09:19.627Z,95792.50
2023-04-05T19:11:50.920Z,95793.72
2023-04-05T19:14:20.817Z,95796.78
2023-04-05T19:16:50.582Z,95789.47
2023-04-05T19:19:20.187Z,95795.56
2023-04-05T19:21:49.834Z,95799.84
2023-04-05T19:24:20.842Z,95802.47
2023-04-05T19:26:52.043Z,95797.41
2023-04-05T19:29:21.786Z,95802.06
2023-04-05T19:31:51.921Z,95796.16
2023-04-05T19:34:21.670Z,95808.78
2023-04-05T19:36:51.283Z,95801.41
2023-04-05T19:39:25.461Z,95803.22
2023-04-05T19:41:57.730Z,95812.38
2023-04-05T19:44:51.576Z,95803.97
2023-04-05T19:47:22.261Z,95806.59
2023-04-05T19:49:55.940Z,95812.47
2023-04-05T19:52:46.463Z,95814.31
2023-04-05T19:55:33.789Z,95804.50
2023-04-05T19:58:10.361Z,95804.28
2023-04-05T20:00:48.458Z,95802.81
2023-04-05T20:03:30.469Z,95802.78
2023-04-05T20:06:10.307Z,95799.91
2023-04-05T20:08:42.998Z,95800.69
2023-04-05T20:11:15.750Z,95800.66
2023-04-05T20:13:50.830Z,95798.81
2023-04-05T20:16:27.560Z,95808.13
2023-04-05T20:19:03.010Z,95798.31
2023-04-05T20:21:33.331Z,95804.19
2023-04-05T20:24:04.404Z,95810.25
2023-04-05T20:26:34.653Z,95807.38
2023-04-05T20:29:10.157Z,95803.69
2023-04-05T20:31:40.288Z,95803.25
2023-04-05T20:34:12.756Z,95804.63
2023-04-05T20:36:51.274Z,95800.75
2023-04-05T20:39:23.522Z,95795.00
2023-04-05T20:41:53.484Z,95802.31
2023-04-05T20:44:25.210Z,95800.06
2023-04-05T20:46:57.724Z,95802.09
2023-04-05T20:49:29.068Z,95803.47
2023-04-05T20:51:58.838Z,95804.88
2023-04-05T20:54:28.689Z,95800.16
2023-04-05T20:56:58.368Z,95801.53
2023-04-05T20:59:29.360Z,95804.34
2023-04-05T21:01:59.078Z,95798.44
2023-04-05T21:04:30.124Z,95798.00
2023-04-05T21:06:59.861Z,95796.38
2023-04-05T21:09:30.115Z,95793.13
2023-04-05T21:11:59.985Z,95799.59
2023-04-05T21:14:31.040Z,95801.81
2023-04-05T21:17:00.661Z,95801.19
2023-04-05T21:19:30.454Z,95803.00
2023-04-05T21:22:00.228Z,95803.19
2023-04-05T21:24:29.878Z,95798.47
2023-04-05T21:26:59.570Z,95799.66
2023-04-05T21:29:30.571Z,95800.03
2023-04-05T21:32:00.245Z,95803.88
2023-04-05T21:34:29.877Z,95801.41
2023-04-05T21:36:59.511Z,95810.50
2023-04-05T21:39:29.160Z,95801.19
2023-04-05T21:41:59.215Z,95806.00
2023-04-05T21:44:30.286Z,95809.41
2023-04-05T21:47:00.201Z,95801.22
2023-04-05T21:49:29.902Z,95804.41
2023-04-05T21:51:59.535Z,95800.50
2023-04-05T21:54:29.138Z,95812.47
2023-04-05T21:56:58.809Z,95804.09
2023-04-05T21:59:29.895Z,95808.09
2023-04-05T22:01:59.715Z,95816.19
2023-04-05T22:04:30.006Z,95808.66
2023-04-05T22:06:59.672Z,95814.09
2023-04-05T22:09:34.732Z,95806.38
2023-04-05T22:12:05.173Z,95814.09
2023-04-05T22:14:36.187Z,95810.66
2023-04-05T22:17:05.916Z,95812.66
2023-04-05T22:19:35.621Z,95807.75
2023-04-05T22:22:05.584Z,95807.31
2023-04-05T22:24:35.152Z,95795.34
2023-04-05T22:27:04.833Z,95804.44
2023-04-05T22:29:36.094Z,95807.25
2023-04-05T22:32:06.489Z,95795.88
2023-04-05T22:34:36.251Z,95812.69
2023-04-05T22:37:05.869Z,95797.88
2023-04-05T22:39:35.584Z,95806.59
2023-04-05T22:42:05.895Z,95800.69
2023-04-05T22:44:36.894Z,95804.69
2023-04-05T22:47:06.631Z,95807.69
2023-04-05T22:49:36.700Z,95803.59
2023-04-05T22:52:06.506Z,95801.16
2023-04-05T22:54:36.204Z,95799.69
2023-04-05T22:57:05.878Z,95791.34
2023-04-05T22:59:42.732Z,95794.56
2023-04-05T23:02:12.539Z,95800.81
2023-04-05T23:04:42.581Z,95794.09
2023-04-05T23:07:12.297Z,95789.19
2023-04-05T23:09:41.992Z,95796.28
2023-04-05T23:12:11.655Z,95794.00
2023-04-05T23:14:42.707Z,95795.34
2023-04-05T23:17:12.388Z,95792.25
2023-04-05T23:19:42.038Z,95799.88
2023-04-05T23:22:11.884Z,95797.81
2023-04-05T23:24:41.485Z,95799.81
2023-04-05T23:27:11.147Z,95805.44
2023-04-05T23:29:42.126Z,95793.81
2023-04-05T23:32:12.818Z,95795.63
2023-04-05T23:34:42.440Z,95793.00
2023-04-05T23:37:12.223Z,95792.34
2023-04-05T23:39:41.958Z,95798.78
2023-04-05T23:42:11.784Z,95796.53
2023-04-05T23:44:42.760Z,95796.88
2023-04-05T23:47:12.346Z,95793.00
2023-04-05T23:49:42.024Z,95798.78
2023-04-05T23:52:11.705Z,95799.16
2023-04-05T23:54:41.509Z,95801.31
2023-04-05T23:57:11.238Z,95791.78
2023-04-05T23:59:42.278Z,95802.50
